Time;durP1;ratioP1;P1;durP2;ratioP2;P2;SDS_P1;SDS_P2;PMS_P1;PMS_P2;Temp;Humidity;BMP_temperature;BMP_pressure;BME280_temperature;BME280_humidity;BME280_pressure;Samples;Min_cycle;Max_cycle;Signal;HPM_P1;HPM_P2
2023/03/17 00:02:23;;;;;;;22.38;14.55;;;;;;;;;;5028606;28;20032;-51
2023/03/17 00:04:51;;;;;;;20.23;13.35;;;;;;;;;;5024583;28;20091;-51
2023/03/17 00:07:17;;;;;;;23.38;16.20;;;;;;;;;;5025957;28;20033;-52
2023/03/17 00:09:43;;;;;;;24.75;15.63;;;;;;;;;;5042766;28;20123;-51
2023/03/17 00:12:10;;;;;;;17.40;12.27;;;;;;;;;;5029320;28;20498;-52
2023/03/17 00:14:36;;;;;;;19.02;12.48;;;;;;;;;;5045848;28;20061;-51
2023/03/17 00:17:03;;;;;;;16.88;11.98;;;;;;;;;;5029549;28;20494;-51
2023/03/17 00:19:31;;;;;;;18.75;12.80;;;;;;;;;;5026974;28;20053;-51
2023/03/17 00:21:57;;;;;;;19.48;13.27;;;;;;;;;;5028003;28;20083;-52
2023/03/17 00:24:24;;;;;;;24.80;14.82;;;;;;;;;;5025806;28;20022;-51
2023/03/17 00:26:50;;;;;;;19.08;12.60;;;;;;;;;;5029989;28;20445;-52
2023/03/17 00:29:16;;;;;;;16.92;12.95;;;;;;;;;;5031544;28;20018;-52
2023/03/17 00:31:44;;;;;;;18.45;11.73;;;;;;;;;;5027485;28;20053;-51
2023/03/17 00:34:17;;;;;;;17.15;12.18;;;;;;;;;;5029209;28;20072;-53
2023/03/17 00:36:45;;;;;;;18.83;11.80;;;;;;;;;;5029117;28;20042;-51
2023/03/17 00:39:15;;;;;;;17.65;11.60;;;;;;;;;;5025090;28;20030;-51
2023/03/17 00:41:41;;;;;;;15.60;11.30;;;;;;;;;;5030112;28;20599;-51
2023/03/17 00:44:07;;;;;;;25.75;16.38;;;;;;;;;;5028463;28;20387;-52
2023/03/17 00:46:36;;;;;;;33.72;22.55;;;;;;;;;;5025295;28;20017;-51
2023/03/17 00:49:22;;;;;;;25.10;18.48;;;;;;;;;;5023079;28;20116;-51
2023/03/17 00:51:48;;;;;;;21.02;14.05;;;4.40;99.90;;;;;;5021886;28;20478;-51
2023/03/17 00:54:15;;;;;;;29.77;19.02;;;;;;;;;;5030146;28;20366;-51
2023/03/17 00:56:42;;;;;;;31.52;20.60;;;;;;;;;;5025751;28;20565;-51
2023/03/17 00:59:15;;;;;;;35.60;22.55;;;;;;;;;;5029653;28;20030;-51
2023/03/17 01:01:41;;;;;;;35.13;23.60;;;;;;;;;;5024157;28;20061;-51
2023/03/17 01:04:09;;;;;;;36.85;23.15;;;;;;;;;;5028223;28;20036;-51
2023/03/17 01:06:35;;;;;;;32.75;21.38;;;4.20;99.90;;;;;;5028407;28;20517;-51
2023/03/17 01:09:02;;;;;;;37.47;25.35;;;;;;;;;;5024869;28;20112;-51
2023/03/17 01:11:29;;;;;;;50.38;31.98;;;;;;;;;;5028227;28;20033;-51
2023/03/17 01:13:55;;;;;;;38.83;26.30;;;;;;;;;;5027780;28;20021;-51
2023/03/17 01:16:22;;;;;;;41.55;27.10;;;;;;;;;;5028035;28;20592;-51
2023/03/17 01:18:48;;;;;;;35.53;24.58;;;4.40;99.90;;;;;;5027214;28;20088;-51
2023/03/17 01:21:14;;;;;;;28.65;20.15;;;4.30;99.90;;;;;;5025139;28;20022;-51
2023/03/17 01:23:41;;;;;;;30.25;23.23;;;4.30;99.90;;;;;;5031902;28;20499;-51
2023/03/17 01:26:06;;;;;;;30.15;22.08;;;4.30;99.90;;;;;;5025730;28;20014;-51
2023/03/17 01:28:33;;;;;;;24.83;19.00;;;4.30;99.90;;;;;;5031082;28;20420;-51
2023/03/17 01:30:59;;;;;;;18.63;14.35;;;4.40;99.90;;;;;;5030387;28;20022;-52
2023/03/17 01:33:25;;;;;;;24.67;16.42;;;4.50;99.90;;;;;;5034267;28;20116;-52
2023/03/17 01:35:51;;;;;;;30.75;19.98;;;4.50;99.90;;;;;;5026715;28;20121;-51
2023/03/17 01:38:17;;;;;;;33.95;21.08;;;4.50;99.90;;;;;;5026240;28;20377;-51
2023/03/17 01:40:48;;;;;;;31.75;20.17;;;4.50;99.90;;;;;;5028958;28;20032;-51
2023/03/17 01:43:22;;;;;;;20.25;13.40;;;4.40;99.90;;;;;;5030107;28;20112;-51
2023/03/17 01:46:11;;;;;;;20.17;13.00;;;4.20;99.90;;;;;;5031987;28;20022;-51
2023/03/17 01:48:45;;;;;;;16.35;12.77;;;4.30;99.90;;;;;;5029496;28;20568;-51
2023/03/17 01:51:17;;;;;;;22.30;14.23;;;4.30;99.90;;;;;;5033785;28;20025;-52
2023/03/17 01:53:44;;;;;;;;;;;4.30;99.90;;;;;;5026333;28;20411;-51
2023/03/17 01:56:11;;;;;;;15.63;10.20;;;4.40;99.90;;;;;;5026489;28;19999;-51
2023/03/17 01:58:38;;;;;;;21.73;14.27;;;4.30;99.90;;;;;;5028184;28;20057;-51
2023/03/17 02:01:04;;;;;;;15.38;10.48;;;4.30;99.90;;;;;;5033311;28;20108;-51
2023/03/17 02:03:30;;;;;;;19.50;11.93;;;4.00;99.90;;;;;;5026826;28;20072;-51
2023/03/17 02:05:57;;;;;;;18.80;11.32;;;4.00;99.90;;;;;;5029433;28;20025;-51
2023/03/17 02:08:25;;;;;;;16.10;9.25;;;3.90;99.90;;;;;;5022878;28;20028;-51
2023/03/17 02:10:51;;;;;;;15.45;11.35;;;3.80;99.90;;;;;;5030249;28;20369;-51
2023/03/17 02:13:17;;;;;;;15.55;10.90;;;3.50;99.90;;;;;;5032196;28;20120;-51
2023/03/17 02:15:45;;;;;;;13.32;8.60;;;;;;;;;;5028937;28;20022;-51
2023/03/17 02:18:11;;;;;;;13.77;8.93;;;;;;;;;;5029412;28;20116;-51
2023/03/17 02:20:37;;;;;;;12.52;8.65;;;;;;;;;;5023445;28;20029;-51
2023/03/17 02:23:05;;;;;;;16.02;8.57;;;3.60;99.90;;;;;;5034178;28;20053;-51
2023/03/17 02:25:34;;;;;;;19.05;10.57;;;3.40;99.90;;;;;;5020801;28;20126;-51
2023/03/17 02:28:09;;;;;;;16.25;10.23;;;3.40;99.90;;;;;;5030878;28;20063;-51
2023/03/17 02:30:35;;;;;;;12.30;8.07;;;3.60;99.90;;;;;;5029618;28;20017;-51
2023/03/17 02:33:02;;;;;;;16.42;10.23;;;3.40;99.90;;;;;;5032022;28;20078;-51
2023/03/17 02:35:29;;;;;;;18.23;11.18;;;3.50;99.90;;;;;;5027783;28;20052;-51
2023/03/17 02:37:55;;;;;;;17.48;10.70;;;3.70;99.90;;;;;;5027865;28;20484;-51
2023/03/17 02:40:23;;;;;;;16.08;9.68;;;3.80;99.90;;;;;;5030757;28;20020;-51
2023/03/17 02:42:49;;;;;;;15.25;9.32;;;3.90;99.90;;;;;;5029570;28;20022;-53
2023/03/17 02:45:15;;;;;;;14.20;9.10;;;4.00;99.90;;;;;;5028893;28;20014;-51
2023/03/17 02:47:41;;;;;;;13.55;8.90;;;4.10;99.90;;;;;;5020919;28;20066;-53
2023/03/17 02:50:15;;;;;;;14.85;9.57;;;4.20;99.90;;;;;;5036693;28;20061;-51
2023/03/17 02:52:41;;;;;;;10.75;9.10;;;4.20;99.90;;;;;;5028474;28;20026;-52
2023/03/17 02:55:07;;;;;;;14.68;8.93;;;4.20;99.90;;;;;;5032871;28;20109;-52
2023/03/17 02:57:33;;;;;;;13.02;8.85;;;4.10;99.90;;;;;;5022026;28;20073;-51
2023/03/17 02:59:59;;;;;;;14.45;8.93;;;4.20;99.90;;;;;;5023693;28;20071;-51
2023/03/17 03:02:25;;;;;;;13.73;8.52;;;4.20;99.90;;;;;;5027106;28;20033;-52
2023/03/17 03:04:51;;;;;;;12.43;9.50;;;4.00;99.90;;;;;;5029362;28;20370;-52
2023/03/17 03:07:17;;;;;;;17.85;9.02;;;3.90;99.90;;;;;;5027206;28;20060;-51
2023/03/17 03:09:43;;;;;;;13.85;9.68;;;4.00;99.90;;;;;;5028720;28;20025;-51
2023/03/17 03:12:10;;;;;;;15.82;9.18;;;4.10;99.90;;;;;;5015878;28;20508;-51
2023/03/17 03:14:36;;;;;;;11.70;8.73;;;4.20;99.90;;;;;;5028856;28;20063;-51
2023/03/17 03:17:03;;;;;;;14.10;9.25;;;4.30;99.90;;;;;;5031797;28;20017;-51
2023/03/17 03:19:28;;;;;;;14.27;9.32;;;4.30;99.90;;;;;;5023460;28;20107;-51
2023/03/17 03:21:54;;;;;;;15.77;9.88;;;4.10;99.90;;;;;;5023806;28;20102;-51
2023/03/17 03:24:20;;;;;;;13.50;9.45;;;4.00;99.90;;;;;;5028816;28;20033;-51
2023/03/17 03:26:46;;;;;;;14.50;9.20;;;4.00;99.90;;;;;;5027276;28;20022;-51
2023/03/17 03:29:12;;;;;;;13.52;8.73;;;3.80;99.90;;;;;;5025046;28;20485;-51
2023/03/17 03:31:37;;;;;;;14.40;9.20;;;3.80;99.90;;;;;;5040700;28;20034;-51
2023/03/17 03:34:03;;;;;;;15.50;9.20;;;3.70;99.90;;;;;;5030998;28;20032;-51
2023/03/17 03:36:29;;;;;;;13.25;8.27;;;3.70;99.90;;;;;;5023751;28;20045;-51
2023/03/17 03:38:55;;;;;;;12.70;8.20;;;3.70;99.90;;;;;;5031710;28;20049;-51
2023/03/17 03:41:21;;;;;;;12.88;8.95;;;3.70;99.90;;;;;;5047018;28;20026;-52
2023/03/17 03:43:47;;;;;;;12.20;8.43;;;3.70;99.90;;;;;;5027382;28;20054;-51
2023/03/17 03:46:12;;;;;;;16.60;8.80;;;3.60;99.90;;;;;;5026119;28;20137;-52
2023/03/17 03:48:38;;;;;;;19.27;9.05;;;3.50;99.90;;;;;;5013151;28;20037;-52
2023/03/17 03:51:04;;;;;;;15.35;10.20;;;3.30;99.90;;;;;;5027685;28;20040;-51
2023/03/17 03:53:30;;;;;;;15.27;9.63;;;3.40;99.90;;;;;;5028258;28;20060;-51
2023/03/17 03:55:56;;;;;;;12.82;8.65;;;3.50;99.90;;;;;;5025475;28;20500;-51
2023/03/17 03:58:22;;;;;;;15.90;9.35;;;3.50;99.90;;;;;;5020949;28;20022;-51
2023/03/17 04:00:47;;;;;;;28.27;10.35;;;3.50;99.90;;;;;;5023729;28;20036;-51
2023/03/17 04:03:14;;;;;;;20.58;10.30;;;3.50;99.90;;;;;;5025693;28;20032;-51
2023/03/17 04:05:40;;;;;;;15.00;9.75;;;3.60;99.90;;;;;;5026308;28;20029;-51
2023/03/17 04:08:06;;;;;;;14.50;9.60;;;3.60;99.90;;;;;;5026606;28;20022;-51
2023/03/17 04:10:33;;;;;;;19.27;11.07;;;3.40;99.90;;;;;;5024957;28;20056;-51
2023/03/17 04:12:59;;;;;;;18.73;10.77;;;3.50;99.90;;;;;;5031592;28;20472;-52
2023/03/17 04:15:25;;;;;;;15.80;10.95;;;3.60;99.90;;;;;;5025673;28;20021;-51
2023/03/17 04:17:51;;;;;;;20.08;10.77;;;3.70;99.90;;;;;;5026600;28;20112;-51
2023/03/17 04:20:16;;;;;;;15.35;10.32;;;3.80;99.90;;;;;;5046565;28;20026;-52
2023/03/17 04:22:42;;;;;;;20.25;12.07;;;3.70;99.90;;;;;;5031250;28;20417;-51
2023/03/17 04:25:10;;;;;;;15.93;11.15;;;3.80;99.90;;;;;;5029308;28;20021;-51
2023/03/17 04:27:36;;;;;;;17.80;10.75;;;3.80;99.90;;;;;;5026416;28;20030;-51
2023/03/17 04:30:03;;;;;;;16.65;10.27;;;3.70;99.90;;;;;;5027390;28;20018;-51
2023/03/17 04:32:29;;;;;;;16.95;11.13;;;3.70;99.90;;;;;;5025817;28;20485;-51
2023/03/17 04:34:56;;;;;;;16.58;10.85;;;3.70;99.90;;;;;;5030608;28;20056;-52
2023/03/17 04:37:22;;;;;;;13.82;9.60;;;3.70;99.90;;;;;;5030440;28;20057;-51
2023/03/17 04:39:48;;;;;;;18.05;11.23;;;3.60;99.90;;;;;;5032251;28;20454;-52
2023/03/17 04:42:13;;;;;;;16.73;10.88;;;3.50;99.90;;;;;;5026709;28;20017;-51
2023/03/17 04:44:40;;;;;;;21.25;10.60;;;3.40;99.90;;;;;;5024213;28;20075;-51
2023/03/17 04:47:06;;;;;;;17.42;9.95;;;3.50;99.90;;;;;;5026007;28;20076;-51
2023/03/17 04:49:32;;;;;;;16.50;11.02;;;3.40;99.90;;;;;;5025512;28;20034;-51
2023/03/17 04:51:57;;;;;;;22.45;11.95;;;3.50;99.90;;;;;;5035860;28;20393;-51
2023/03/17 04:54:24;;;;;;;16.58;12.15;;;3.50;99.90;;;;;;5050160;28;20042;-52
2023/03/17 04:56:49;;;;;;;15.95;11.02;;;3.60;99.90;;;;;;5032328;28;20030;-52
2023/03/17 04:59:15;;;;;;;17.17;11.00;;;3.50;99.90;;;;;;5034198;28;20438;-51
2023/03/17 05:01:41;;;;;;;17.15;11.50;;;3.50;99.90;;;;;;5030654;28;20057;-52
2023/03/17 05:04:07;;;;;;;18.35;10.68;;;3.60;99.90;;;;;;5030575;28;20468;-51
2023/03/17 05:06:33;;;;;;;17.55;12.57;;;3.70;99.90;;;;;;5027065;28;20105;-51
2023/03/17 05:08:58;;;;;;;15.00;11.15;;;3.80;99.90;;;;;;5032206;28;20076;-52
2023/03/17 05:11:24;;;;;;;22.23;14.68;;;4.00;99.90;;;;;;5033876;28;20025;-51
2023/03/17 05:13:50;;;;;;;21.95;13.02;;;4.00;99.90;;;;;;5035055;28;20056;-52
2023/03/17 05:16:15;;;;;;;27.83;18.08;;;4.10;99.90;;;;;;5040372;28;20509;-51
2023/03/17 05:18:42;;;;;;;18.05;11.48;;;4.10;99.90;;;;;;5024425;28;20045;-53
2023/03/17 05:21:08;;;;;;;20.65;10.27;;;4.20;99.90;;;;;;5030860;28;20025;-51
2023/03/17 05:23:34;;;;;;;16.95;10.48;;;4.30;99.90;;;;;;5034985;28;20029;-51
2023/03/17 05:26:00;;;;;;;15.25;9.68;;;4.20;99.90;;;;;;5026488;28;20030;-53
2023/03/17 05:28:26;;;;;;;16.15;9.95;;;4.30;99.90;;;;;;5029576;28;20099;-54
2023/03/17 05:30:53;;;;;;;18.80;10.18;;;4.30;99.90;;;;;;5026320;28;20474;-52
2023/03/17 05:33:19;;;;;;;19.00;10.55;;;4.40;99.90;;;;;;5033707;28;20036;-52
2023/03/17 05:35:46;;;;;;;15.93;9.27;;;4.40;99.90;;;;;;5046767;28;20038;-51
2023/03/17 05:38:14;;;;;;;35.92;19.23;;;4.50;99.90;;;;;;5030248;28;20041;-51
2023/03/17 05:40:40;;;;;;;18.42;12.18;;;4.60;99.90;;;;;;5023465;28;20118;-51
2023/03/17 05:43:06;;;;;;;14.98;10.70;;;4.60;99.90;;;;;;5034226;28;20072;-52
2023/03/17 05:45:32;;;;;;;19.05;10.43;;;4.70;99.90;;;;;;5033359;28;20025;-51
2023/03/17 05:47:58;;;;;;;18.02;9.75;;;4.70;99.90;;;;;;5023816;28;20061;-52
2023/03/17 05:50:24;;;;;;;18.58;12.32;;;4.90;99.90;;;;;;5028793;28;20040;-51
2023/03/17 05:52:51;;;;;;;15.30;10.32;;;4.90;99.90;;;;;;5025647;28;20036;-52
2023/03/17 05:55:17;;;;;;;20.05;13.43;;;4.90;99.90;;;;;;5048441;28;20120;-51
2023/03/17 05:57:43;;;;;;;16.15;10.50;;;5.00;99.90;;;;;;5028591;28;20048;-51
2023/03/17 06:00:10;;;;;;;17.88;11.07;;;5.10;99.90;;;;;;5029000;28;20615;-51
2023/03/17 06:02:36;;;;;;;17.80;11.07;;;4.70;99.90;;;;;;5029736;28;20108;-52
2023/03/17 06:05:03;;;;;;;21.35;11.25;;;4.50;99.90;;;;;;5031039;28;20080;-51
2023/03/17 06:07:29;;;;;;;14.05;10.38;;;4.40;99.90;;;;;;5025081;28;20029;-51
2023/03/17 06:09:55;;;;;;;14.60;11.00;;;4.50;99.90;;;;;;5029676;28;20088;-51
2023/03/17 06:12:20;;;;;;;19.92;11.38;;;4.70;99.90;;;;;;5039235;28;20030;-51
2023/03/17 06:14:47;;;;;;;18.27;11.40;;;;;;;;;;5029774;28;20496;-52
2023/03/17 06:17:13;;;;;;;13.98;10.63;;;5.00;99.90;;;;;;5029404;28;20034;-51
2023/03/17 06:19:39;;;;;;;15.30;10.98;;;5.20;99.90;;;;;;5021912;28;20026;-52
2023/03/17 06:22:06;;;;;;;15.57;11.70;;;5.20;99.90;;;;;;5030764;28;20042;-53
2023/03/17 06:24:32;;;;;;;18.50;10.45;;;5.30;99.90;;;;;;5024789;28;20385;-52
2023/03/17 06:26:58;;;;;;;19.52;10.63;;;5.50;99.90;;;;;;5028338;28;20029;-52
2023/03/17 06:29:24;;;;;;;15.35;10.02;;;5.50;99.90;;;;;;5025407;28;20612;-52
2023/03/17 06:31:50;;;;;;;21.25;13.02;;;5.50;99.90;;;;;;5029881;28;20027;-53
2023/03/17 06:34:20;;;;;;;16.05;12.00;;;5.50;99.90;;;;;;5025697;28;20029;-53
2023/03/17 06:36:46;;;;;;;23.38;14.45;;;5.70;99.90;;;;;;5029776;28;20132;-53
2023/03/17 06:39:13;;;;;;;21.42;13.73;;;5.80;99.90;;;;;;5024295;28;20134;-52
2023/03/17 06:41:39;;;;;;;25.08;15.95;;;5.80;99.90;;;;;;5025038;28;20437;-53
2023/03/17 06:44:06;;;;;;;19.88;13.52;;;5.70;99.90;;;;;;5022110;28;20113;-53
2023/03/17 06:46:32;;;;;;;17.75;12.20;;;6.00;99.90;;;;;;5025853;28;20025;-52
2023/03/17 06:48:58;;;;;;;20.30;13.30;;;5.90;99.90;;;;;;5024390;28;20110;-52
2023/03/17 06:51:23;;;;;;;26.70;14.50;;;6.00;99.90;;;;;;5025156;28;20040;-52
2023/03/17 06:53:49;;;;;;;16.20;11.13;;;6.20;99.90;;;;;;5032703;28;20076;-54
2023/03/17 06:56:15;;;;;;;17.23;12.25;;;6.30;99.90;;;;;;5020168;28;20156;-53
2023/03/17 06:58:41;;;;;;;16.30;11.40;;;6.20;99.90;;;;;;5030137;28;20025;-52
2023/03/17 07:01:07;;;;;;;17.55;11.85;;;6.60;99.90;;;;;;5028030;28;20025;-53
2023/03/17 07:03:34;;;;;;;17.35;11.60;;;6.70;99.90;;;;;;5027154;28;20481;-51
2023/03/17 07:06:00;;;;;;;16.55;11.50;;;7.00;99.90;;;;;;5028921;28;20121;-51
2023/03/17 07:08:29;;;;;;;14.52;10.27;;;7.70;99.90;;;;;;5025553;28;20029;-53
2023/03/17 07:10:56;;;;;;;14.40;10.88;;;;;;;;;;5021779;28;20493;-54
2023/03/17 07:13:22;;;;;;;13.65;8.73;;;9.10;99.90;;;;;;5028435;28;20037;-53
2023/03/17 07:15:48;;;;;;;17.48;11.10;;;;;;;;;;5030438;28;20101;-52
2023/03/17 07:18:15;;;;;;;15.68;9.63;;;10.20;99.90;;;;;;5023175;28;20026;-53
2023/03/17 07:20:42;;;;;;;16.38;10.07;;;9.90;98.80;;;;;;5025459;28;20036;-53
2023/03/17 07:23:21;;;;;;;17.95;9.63;;;9.80;97.70;;;;;;5032473;28;20120;-53
2023/03/17 07:25:47;;;;;;;16.35;9.73;;;9.70;99.00;;;;;;5031087;28;20064;-51
2023/03/17 07:28:14;;;;;;;15.80;9.43;;;9.80;98.20;;;;;;5027261;28;20072;-52
2023/03/17 07:30:45;;;;;;;14.35;10.95;;;9.80;98.30;;;;;;5026816;28;20116;-53
2023/03/17 07:33:16;;;;;;;19.10;11.15;;;9.60;98.00;;;;;;5028219;28;20488;-54
2023/03/17 07:35:42;;;;;;;16.42;11.82;;;10.20;98.30;;;;;;5025768;28;20041;-52
2023/03/17 07:38:09;;;;;;;13.80;8.25;;;10.50;98.80;;;;;;5025652;28;20029;-52
2023/03/17 07:40:35;;;;;;;13.50;8.50;;;10.90;99.90;;;;;;5029338;28;20029;-52
2023/03/17 07:43:01;;;;;;;23.65;11.57;;;;;;;;;;5027393;28;20029;-54
2023/03/17 07:45:27;;;;;;;19.17;9.75;;;10.30;98.20;;;;;;5028597;28;20017;-53
2023/03/17 07:47:53;;;;;;;16.92;9.60;;;10.10;99.90;;;;;;5031895;28;20017;-55
2023/03/17 07:50:19;;;;;;;20.05;11.23;;;10.20;99.90;;;;;;5045825;28;20044;-52
2023/03/17 07:52:45;;;;;;;14.95;10.00;;;;;;;;;;5031694;28;20018;-53
2023/03/17 07:55:11;;;;;;;18.20;10.57;;;11.70;99.90;;;;;;5026381;28;20458;-51
2023/03/17 07:57:38;;;;;;;19.80;11.52;;;11.70;96.60;;;;;;5031938;28;20033;-53
2023/03/17 08:00:09;;;;;;;14.07;10.27;;;11.30;96.10;;;;;;5023447;28;20027;-53
2023/03/17 08:02:35;;;;;;;13.80;9.73;;;;;;;;;;5030481;28;20033;-53
2023/03/17 08:05:02;;;;;;;13.80;9.73;;;;;;;;;;5032040;28;20048;-53
2023/03/17 08:07:29;;;;;;;11.15;8.45;;;;;;;;;;5021943;28;20088;-53
2023/03/17 08:09:56;;;;;;;17.02;8.30;;;;;;;;;;5027058;28;20528;-52
2023/03/17 08:12:22;;;;;;;12.50;8.38;;;12.50;92.70;;;;;;5028577;28;20362;-54
2023/03/17 08:14:49;;;;;;;12.88;7.57;;;12.80;94.60;;;;;;5026177;28;20044;-52
2023/03/17 08:17:15;;;;;;;11.30;7.43;;;13.60;93.40;;;;;;5021544;28;20065;-53
2023/03/17 08:19:41;;;;;;;12.95;7.68;;;13.50;92.20;;;;;;5027253;28;20061;-54
2023/03/17 08:22:07;;;;;;;11.50;7.38;;;13.90;91.30;;;;;;5026994;28;20056;-54
2023/03/17 08:24:33;;;;;;;13.05;8.32;;;13.90;91.10;;;;;;5030058;28;20029;-52
2023/03/17 08:26:59;;;;;;;11.95;6.93;;;13.50;90.40;;;;;;5035487;28;20377;-54
2023/03/17 08:29:24;;;;;;;9.98;5.35;;;13.80;91.30;;;;;;5030665;28;20030;-54
2023/03/17 08:31:50;;;;;;;10.18;6.07;;;13.90;89.80;;;;;;5033577;28;20473;-55
2023/03/17 08:34:16;;;;;;;8.73;5.60;;;14.20;89.10;;;;;;5024900;28;20588;-53
2023/03/17 08:36:42;;;;;;;11.30;6.35;;;;;;;;;;5036022;28;20033;-55
2023/03/17 08:39:09;;;;;;;9.38;6.75;;;;;;;;;;5050635;28;20032;-52
2023/03/17 08:41:36;;;;;;;9.88;6.70;;;;;;;;;;5025463;28;20026;-53
2023/03/17 08:44:02;;;;;;;14.32;10.13;;;;;;;;;;5033369;28;20096;-54
2023/03/17 08:46:32;;;;;;;11.65;7.28;;;;;;;;;;5028811;28;20144;-55
2023/03/17 08:48:59;;;;;;;24.00;16.20;;;;;;;;;;5031509;28;20053;-54
2023/03/17 08:51:27;;;;;;;18.88;7.70;;;;;;;;;;5035648;28;20108;-54
2023/03/17 08:53:54;;;;;;;9.90;6.28;;;;;;;;;;5030947;28;20030;-57
2023/03/17 08:56:20;;;;;;;15.25;6.95;;;;;;;;;;5030902;28;20129;-55
2023/03/17 08:58:47;;;;;;;10.27;6.85;;;17.70;85.30;;;;;;5031303;28;20032;-50
2023/03/17 09:01:14;;;;;;;9.63;6.20;;;17.80;83.20;;;;;;5033173;28;20060;-55
2023/03/17 09:03:40;;;;;;;9.98;6.68;;;17.40;83.60;;;;;;5033976;28;20021;-57
2023/03/17 09:06:10;;;;;;;9.32;6.80;;;17.80;83.60;;;;;;5030817;28;20021;-67
2023/03/17 09:08:43;;;;;;;15.27;6.63;;;;;;;;;;5032712;28;20104;-56
2023/03/17 09:11:10;;;;;;;10.23;5.88;;;;;;;;;;5032584;28;20017;-58
2023/03/17 09:13:37;;;;;;;7.70;5.53;;;;;;;;;;5032131;28;20056;-58
2023/03/17 09:16:04;;;;;;;10.65;6.35;;;19.80;94.20;;;;;;5029396;28;20037;-57
2023/03/17 09:18:31;;;;;;;7.93;5.22;;;19.80;77.90;;;;;;5026334;28;20481;-56
2023/03/17 09:20:58;;;;;;;11.30;6.20;;;;;;;;;;5025505;28;20064;-56
2023/03/17 09:23:24;;;;;;;8.98;5.72;;;;;;;;;;5026461;28;20110;-58
2023/03/17 09:25:51;;;;;;;10.85;5.65;;;;;;;;;;5034675;28;20029;-61
2023/03/17 09:28:17;;;;;;;9.60;6.40;;;;;;;;;;5032744;28;20025;-59
2023/03/17 09:30:44;;;;;;;8.10;5.45;;;;;;;;;;5035542;28;20484;-58
2023/03/17 09:33:11;;;;;;;9.82;5.57;;;19.70;92.20;;;;;;5022926;28;20029;-54
2023/03/17 09:35:38;;;;;;;7.10;4.38;;;;;;;;;;5044082;28;20115;-57
2023/03/17 09:38:05;;;;;;;8.10;4.50;;;21.30;99.80;;;;;;5026095;28;20029;-60
2023/03/17 09:40:36;;;;;;;9.05;5.18;;;21.50;72.00;;;;;;5026023;28;20022;-60
2023/03/17 09:43:22;;;;;;;9.07;5.10;;;20.90;90.00;;;;;;5028031;28;20026;-59
2023/03/17 09:45:49;;;;;;;12.35;8.18;;;19.40;72.60;;;;;;5030383;28;20022;-59
2023/03/17 09:48:33;;;;;;;7.22;4.45;;;18.40;73.00;;;;;;5029725;28;20030;-61
2023/03/17 09:51:09;;;;;;;17.35;11.60;;;19.30;88.70;;;;;;5027477;28;20097;-57
2023/03/17 09:53:40;;;;;;;12.52;7.60;;;20.30;74.80;;;;;;5028339;28;20505;-61
2023/03/17 09:56:08;;;;;;;11.90;4.82;;;;;;;;;;5032210;28;20437;-58
2023/03/17 09:58:36;;;;;;;5.35;4.38;;;20.70;72.10;;;;;;5027671;28;20029;-61
2023/03/17 10:01:04;;;;;;;19.08;11.65;;;19.40;72.10;;;;;;5048821;28;20029;-60
2023/03/17 10:03:31;;;;;;;7.88;6.15;;;19.80;72.20;;;;;;5034347;28;20492;-60
2023/03/17 10:06:22;;;;;;;18.55;10.20;;;18.70;70.90;;;;;;5039755;28;20099;-57
2023/03/17 10:09:17;;;;;;;8.82;5.45;;;19.40;73.40;;;;;;5026280;28;20017;-59
2023/03/17 10:11:46;;;;;;;11.85;6.72;;;;;;;;;;5011337;28;20541;-55
2023/03/17 10:14:26;;;;;;;68.63;43.40;;;;;;;;;;5018714;28;20532;-60
2023/03/17 10:16:57;;;;;;;36.20;22.65;;;;;;;;;;5016277;28;20057;-54
2023/03/17 10:19:28;;;;;;;8.57;4.75;;;;;;;;;;5017213;28;20439;-57
2023/03/17 10:22:14;;;;;;;8.60;4.30;;;21.50;91.20;;;;;;5020747;28;20498;-55
2023/03/17 10:24:44;;;;;;;7.53;4.40;;;;;;;;;;4970267;28;20117;-56
2023/03/17 10:27:11;;;;;;;7.47;4.43;;;;;;;;;;5013843;28;20038;-56
2023/03/17 10:29:37;;;;;;;6.85;4.95;;;21.90;84.40;;;;;;4999624;28;20036;-53
2023/03/17 10:32:03;;;;;;;14.95;12.35;;;;;;;;;;5012098;28;20030;-57
2023/03/17 10:34:31;;;;;;;9.85;7.32;;;19.80;94.10;;;;;;5016868;28;20033;-56
2023/03/17 10:37:11;;;;;;;15.45;12.13;;;18.60;69.40;;;;;;5012248;28;20046;-56
2023/03/17 10:39:50;;;;;;;8.18;5.43;;;19.50;70.40;;;;;;5014308;28;20048;-57
2023/03/17 10:42:46;;;;;;;6.75;4.07;;;19.70;69.00;;;;;;5012523;28;20048;-59
2023/03/17 10:45:12;;;;;;;4.28;3.15;;;;;;;;;;5015645;28;20033;-56
2023/03/17 10:47:43;;;;;;;8.98;3.88;;;18.90;77.50;;;;;;5016306;28;20381;-60
2023/03/17 10:50:18;;;;;;;9.80;3.50;;;19.10;69.70;;;;;;5028331;28;20454;-57
2023/03/17 10:52:46;;;;;;;5.57;2.90;;;;;;;;;;5023943;28;20018;-57
2023/03/17 10:55:17;;;;;;;7.63;4.10;;;20.60;85.70;;;;;;5020796;28;20525;-58
2023/03/17 10:58:09;;;;;;;6.15;3.45;;;;;;;;;;5029891;28;20060;-58
2023/03/17 11:00:37;;;;;;;8.15;4.43;;;20.40;75.90;;;;;;5015510;28;20536;-58
2023/03/17 11:03:09;;;;;;;4.28;3.13;;;20.60;66.00;;;;;;5021968;28;20029;-59
2023/03/17 11:05:35;;;;;;;5.00;4.00;;;;;;;;;;5030871;28;20033;-58
2023/03/17 11:08:16;;;;;;;5.22;3.95;;;;;;;;;;4997254;28;20064;-54
2023/03/17 11:10:43;;;;;;;8.32;4.38;;;;;;;;;;5023668;28;20040;-57
2023/03/17 11:13:09;;;;;;;7.82;4.07;;;;;;;;;;5027363;28;20080;-57
2023/03/17 11:15:41;;;;;;;5.28;4.10;;;20.30;68.00;;;;;;5030529;28;20034;-59
2023/03/17 11:18:27;;;;;;;5.78;3.90;;;19.70;68.50;;;;;;5019410;28;20067;-57
2023/03/17 11:21:05;;;;;;;5.97;4.13;;;19.90;69.90;;;;;;5023625;28;20481;-54
2023/03/17 11:23:47;;;;;;;5.40;4.13;;;20.30;65.70;;;;;;5025072;28;20041;-56
2023/03/17 11:26:32;;;;;;;7.40;5.22;;;;;;;;;;5027060;28;20025;-59
2023/03/17 11:28:58;;;;;;;6.25;4.53;;;20.50;68.00;;;;;;5023930;28;20493;-59
2023/03/17 11:31:46;;;;;;;13.70;7.63;;;20.70;66.70;;;;;;5048415;28;20037;-57
2023/03/17 11:34:36;;;;;;;7.40;4.57;;;20.20;67.20;;;;;;5008802;28;20123;-55
2023/03/17 11:37:26;;;;;;;7.28;4.40;;;19.80;68.00;;;;;;5029474;28;20048;-55
2023/03/17 11:40:02;;;;;;;7.32;4.65;;;19.40;66.10;;;;;;5027288;28;20030;-58
2023/03/17 11:42:45;;;;;;;5.93;4.30;;;20.10;67.30;;;;;;5030670;28;20432;-55
2023/03/17 11:45:15;;;;;;;8.73;4.93;;;;;;;;;;5030302;28;20057;-55
2023/03/17 11:47:49;;;;;;;5.53;3.60;;;19.60;79.70;;;;;;5030819;28;20104;-57
2023/03/17 11:50:44;;;;;;;6.78;3.42;;;19.30;66.10;;;;;;5030682;28;20033;-54
2023/03/17 11:53:51;;;;;;;5.95;4.10;;;19.40;67.70;;;;;;5029813;28;20033;-58
2023/03/17 11:56:34;;;;;;;6.88;3.40;;;19.60;65.60;;;;;;4972604;28;20047;-58
2023/03/17 11:59:04;;;;;;;5.60;3.75;;;19.90;65.30;;;;;;4976908;28;20027;-57
2023/03/17 12:01:44;;;;;;;38.13;26.60;;;20.30;70.40;;;;;;4972777;28;20043;-55
2023/03/17 12:04:32;;;;;;;16.25;10.82;;;20.00;65.20;;;;;;4977198;28;20070;-57
2023/03/17 12:07:10;;;;;;;5.78;3.70;;;20.10;64.80;;;;;;4976468;28;20022;-57
2023/03/17 12:09:42;;;;;;;8.93;5.60;;;20.60;64.80;;;;;;4973754;28;20085;-57
2023/03/17 12:12:11;;;;;;;32.53;21.08;;;20.60;65.30;;;;;;4977271;28;20089;-56
2023/03/17 12:14:47;;;;;;;8.30;4.80;;;20.60;63.30;;;;;;4974902;28;20035;-57
2023/03/17 12:17:37;;;;;;;11.40;4.40;;;21.00;64.90;;;;;;4973032;28;20071;-55
2023/03/17 12:20:13;;;;;;;5.78;3.50;;;21.10;65.70;;;;;;4970215;28;20475;-58
2023/03/17 12:22:57;;;;;;;5.45;3.47;;;19.50;66.90;;;;;;4975140;28;20187;-55
2023/03/17 12:25:48;;;;;;;12.32;5.28;;;18.70;73.10;;;;;;4974350;28;20479;-55
2023/03/17 12:28:21;;;;;;;8.45;4.93;;;17.80;67.10;;;;;;4969812;28;20030;-58
2023/03/17 12:31:07;;;;;;;7.35;4.88;;;;;;;;;;4975089;28;20031;-57
2023/03/17 12:33:37;;;;;;;7.43;4.80;;;;;;;;;;5013985;28;20040;-55
2023/03/17 12:36:06;;;;;;;4.60;3.33;;;19.70;71.50;;;;;;5045171;28;20046;-57
2023/03/17 12:38:39;;;;;;;10.90;5.03;;;19.60;65.90;;;;;;5023190;28;20099;-57
2023/03/17 12:41:12;;;;;;;6.20;3.85;;;20.20;64.80;;;;;;5032018;28;20021;-55
2023/03/17 12:44:08;;;;;;;10.80;6.80;;;19.30;63.90;;;;;;5026374;28;20033;-58
2023/03/17 12:47:11;;;;;;;21.48;8.75;;;19.80;66.50;;;;;;5023711;28;20028;-56
2023/03/17 12:49:54;;;;;;;6.38;3.97;;;20.00;67.00;;;;;;5022569;28;20038;-56
2023/03/17 12:52:52;;;;;;;4.53;2.70;;;19.50;64.90;;;;;;5024288;28;20022;-54
2023/03/17 12:55:24;;;;;;;6.00;3.67;;;18.60;64.40;;;;;;5007210;28;20030;-58
2023/03/17 12:58:22;;;;;;;7.18;3.55;;;18.20;65.40;;;;;;5008656;28;20041;-55
2023/03/17 13:00:56;;;;;;;5.45;2.90;;;18.40;65.60;;;;;;5009285;28;20108;-57
2023/03/17 13:03:26;;;;;;;7.07;4.25;;;18.90;66.60;;;;;;5006715;28;20022;-52
2023/03/17 13:05:58;;;;;;;5.63;3.38;;;19.10;65.20;;;;;;5007960;28;20114;-54
2023/03/17 13:08:30;;;;;;;7.65;3.90;;;18.90;64.20;;;;;;5005946;28;20041;-54
2023/03/17 13:11:13;;;;;;;5.93;2.97;;;19.30;65.70;;;;;;5008770;28;20481;-54
2023/03/17 13:13:54;;;;;;;4.32;2.65;;;18.70;62.60;;;;;;5013082;28;20161;-57
2023/03/17 13:16:31;;;;;;;7.35;3.38;;;19.20;62.90;;;;;;5012846;28;20433;-56
2023/03/17 13:19:23;;;;;;;6.60;4.05;;;19.30;61.80;;;;;;5010402;28;20045;-54